METAR

TAF

 




Rio de Janeiro / Galeão - Antonio Carlos Jobim, RJ - SBGL


19 de Dezembro de 2014 às 16:00 (UTC)


Tempo:

Céu com nuvens esparsas

Temperatura:

30ºC

Umidade Relativa:

55%

Localização:
Ajuste do Altímetro:

1008 hPa

Visibilidade Horizontal Predominante:

> 10 Km

Direção e Velocidade do Vento:

140° 22,22 Km/h


Observação Meteorológica:

METAR SBGL 191600Z 14012KT 9999 FEW020 30/20 Q1008=